Tampa, Florida
Traffic Map
Current Weather Conditions
Tampa, Florida
Broken Clouds
Broken Clouds
27°
Feels Like: 28°
Wind Chill: 27° Ceiling: 28000
Heat Index: 28° Visibility: 10mi
Dew Point: 16° Wind: 6mph
Humidity: 50% Direction: 280° (W)
Pressure: 29.93in Gusts: 0mph
Raw Report DataKTPA 222153Z 28005KT 10SM BKN280 27/16 A2993 RMK AO2 SLP133 T02720161
Traffic Incident Summary
Active as of:
Severity:
Category:
InformationThere was an issue retrieving the traffic information for this location. Please try a different location or try again shortly.
Advertisements
Track Severe Weather on mobile